Muir Woods, California
Current Conditions -  °F | °C
As of 11:15 AM on Friday 28 Nov 2014 (Local Time) from KDVO Reporting Station
Haze Haze  
Wind Chill: 50°   Ceiling: NA
Heat Index: 50°   Visibility: 3mi
Dew Point: 50°   Wind: 0mph
Humidity: 100%   Direction: NA
Pressure: 30.01"   Gusts: NA
Location:  37.8835°N, 122.554°W
Report Text: KDVO 281915Z AUTO 00000KT 3SM BR 10/10 A3001 RMK AO2
Loading
Personal Weather Stations






























Interactive Weather Map New forecast layout! Learn more

10-Day Weather Forecast

Advertisements
Track Severe Weather on mobile